Time;durP1;ratioP1;P1;durP2;ratioP2;P2;SDS_P1;SDS_P2;PMS_P1;PMS_P2;Temp;Humidity;BMP_temperature;BMP_pressure;BME280_temperature;BME280_humidity;BME280_pressure;Samples;Min_cycle;Max_cycle;Signal;HPM_P1;HPM_P2
2023/11/23 00:00:12;;;;;;;5.50;4.22;;;;;;;6.19;69.45;101356.88;7395504;19;20362;-58
2023/11/23 00:02:40;;;;;;;5.70;4.38;;;;;;;6.26;69.88;101351.94;7391420;19;20381;-60
2023/11/23 00:05:08;;;;;;;6.50;4.75;;;;;;;6.27;70.50;101340.44;7395100;19;20359;-60
2023/11/23 00:07:35;;;;;;;6.78;4.55;;;;;;;6.31;70.82;101340.03;7397907;19;20894;-60
2023/11/23 00:10:05;;;;;;;6.65;4.28;;;;;;;6.34;71.02;101336.31;7398805;19;20360;-58
2023/11/23 00:12:32;;;;;;;7.43;5.10;;;;;;;6.35;71.77;101335.31;7393460;19;20353;-59
2023/11/23 00:15:01;;;;;;;6.35;5.10;;;;;;;6.39;72.39;101323.56;7393365;19;20336;-59
2023/11/23 00:17:29;;;;;;;6.72;4.93;;;;;;;6.41;72.51;101339.25;7397030;19;20420;-56
2023/11/23 00:19:58;;;;;;;6.60;4.85;;;;;;;6.42;73.04;101320.66;7397944;19;20381;-59
2023/11/23 00:22:25;;;;;;;6.82;5.13;;;;;;;6.45;73.68;101320.41;7392540;19;20364;-59
2023/11/23 00:24:55;;;;;;;8.63;6.20;;;;;;;6.52;74.20;101311.00;7394079;19;20408;-57
2023/11/23 00:27:22;;;;;;;6.23;5.17;;;;;;;6.53;74.77;101325.84;7392782;19;20356;-59
2023/11/23 00:29:51;;;;;;;7.53;5.55;;;;;;;6.58;75.05;101312.25;7394397;19;20333;-57
2023/11/23 00:32:19;;;;;;;7.75;5.60;;;;;;;6.56;75.41;101311.56;7393976;19;20363;-59
2023/11/23 00:34:46;;;;;;;7.80;5.70;;;;;;;6.59;75.94;101302.53;7391219;19;20360;-61
2023/11/23 00:37:13;;;;;;;11.20;5.85;;;;;;;6.61;76.13;101297.97;7392343;19;20372;-59
2023/11/23 00:39:40;;;;;;;8.35;6.53;;;;;;;6.62;76.46;101302.28;7395638;19;20926;-58
2023/11/23 00:42:06;;;;;;;9.30;6.47;;;;;;;6.65;76.57;101294.09;7391931;19;20681;-60
2023/11/23 00:44:33;;;;;;;8.45;6.55;;;;;;;6.62;77.11;101283.84;7394113;19;20367;-58
2023/11/23 00:47:00;;;;;;;10.48;6.57;;;;;;;6.65;77.15;101294.09;7393688;19;20795;-60
2023/11/23 00:49:27;;;;;;;9.18;6.75;;;;;;;6.59;77.87;101273.53;7394187;19;20403;-59
2023/11/23 00:51:54;;;;;;;10.43;7.80;;;;;;;6.64;78.17;101279.25;7395598;19;20368;-60
2023/11/23 00:54:21;;;;;;;9.37;7.10;;;;;;;6.64;78.52;101269.53;7395015;19;20381;-60
2023/11/23 00:56:48;;;;;;;10.48;7.47;;;;;;;6.68;79.16;101267.47;7394487;19;20439;-58
2023/11/23 00:59:16;;;;;;;10.70;7.63;;;;;;;6.70;79.78;101276.91;7394869;19;20355;-60
2023/11/23 01:01:44;;;;;;;10.48;7.95;;;;;;;6.72;80.54;101263.59;7387640;19;20423;-57
2023/11/23 01:04:13;;;;;;;10.85;8.07;;;;;;;6.75;80.78;101271.22;7395968;19;20369;-61
2023/11/23 01:06:42;;;;;;;12.32;8.18;;;;;;;6.79;81.08;101270.00;7394623;19;20385;-58
2023/11/23 01:09:09;;;;;;;10.25;8.07;;;;;;;6.82;81.41;101267.09;7394014;19;20702;-55
2023/11/23 01:11:36;;;;;;;12.53;8.30;;;;;;;6.83;81.64;101266.13;7396028;19;20369;-58
2023/11/23 01:14:03;;;;;;;10.40;8.30;;;;;;;6.87;81.77;101262.22;7391283;19;20380;-58
2023/11/23 01:16:30;;;;;;;11.87;8.53;;;;;;;6.83;81.94;101271.38;7394507;19;20348;-59
2023/11/23 01:18:57;;;;;;;12.15;8.73;;;;;;;6.90;81.93;101261.13;7393689;19;20368;-58
2023/11/23 01:21:24;;;;;;;11.55;8.20;;;;;;;6.85;81.90;101253.63;7391367;19;20376;-56
2023/11/23 01:23:50;;;;;;;11.30;8.77;;;;;;;6.88;82.28;101248.06;7395411;19;20752;-55
2023/11/23 01:26:17;;;;;;;11.20;8.85;;;;;;;6.88;82.94;101248.06;7391202;19;20417;-58
2023/11/23 01:28:44;;;;;;;10.70;9.40;;;;;;;6.91;82.73;101242.53;7393695;19;20341;-58
2023/11/23 01:31:11;;;;;;;12.70;9.65;;;;;;;6.91;82.81;101249.63;7392577;19;20357;-58
2023/11/23 01:33:38;;;;;;;14.43;10.68;;;;;;;6.94;83.00;101244.88;7394575;19;20359;-59
2023/11/23 01:36:06;;;;;;;11.60;9.47;;;;;;;6.91;83.18;101246.97;7392753;19;20404;-58
2023/11/23 01:38:33;;;;;;;11.98;9.70;;;;;;;6.88;83.41;101232.25;7394346;19;20372;-57
2023/11/23 01:41:00;;;;;;;12.35;9.70;;;;;;;6.91;83.71;101246.97;7392170;19;20714;-59
2023/11/23 01:43:27;;;;;;;12.80;10.05;;;;;;;6.92;83.67;101233.63;7392143;19;20396;-58
2023/11/23 01:45:53;;;;;;;11.98;9.82;;;;;;;6.86;84.13;101236.81;7395268;19;20367;-56
2023/11/23 01:48:21;;;;;;;12.03;9.70;;;;;;;6.89;84.64;101222.56;7392108;19;20400;-57
2023/11/23 01:50:49;;;;;;;12.27;10.75;;;;;;;6.87;85.25;101214.75;7393348;19;20364;-60
2023/11/23 01:53:17;;;;;;;14.02;11.07;;;;;;;6.91;85.44;101216.16;7392609;19;20386;-59
2023/11/23 01:55:44;;;;;;;13.05;11.18;;;;;;;6.88;86.52;101218.22;7392718;19;20406;-57
2023/11/23 01:58:15;;;;;;;12.93;10.73;;;;;;;6.91;86.62;101220.59;7391534;19;20405;-54
2023/11/23 02:00:43;;;;;;;15.27;12.02;;;;;;;6.96;86.93;101217.56;7392548;19;20777;-57
2023/11/23 02:03:10;;;;;;;14.15;11.40;;;;;;;6.97;87.34;101227.13;7392337;19;20432;-60
2023/11/23 02:05:37;;;;;;;15.10;11.73;;;;;;;6.99;87.35;101204.06;7393558;19;20390;-60
2023/11/23 02:08:05;;;;;;;14.75;12.02;;;;;;;7.03;87.67;101201.00;7389170;19;20376;-59
2023/11/23 02:10:32;;;;;;;14.85;11.70;;;;;;;7.06;87.71;101198.09;7391857;19;20356;-59
2023/11/23 02:12:59;;;;;;;14.57;11.68;;;;;;;7.07;88.02;101173.38;7392754;19;20828;-57
2023/11/23 02:15:26;;;;;;;16.25;12.05;;;;;;;7.10;88.62;101172.28;7391512;19;20341;-58
2023/11/23 02:18:05;;;;;;;15.10;11.90;;;;;;;7.13;88.49;101193.09;7391081;19;20368;-60
2023/11/23 02:20:32;;;;;;;15.75;11.52;;;;;;;7.15;88.93;101185.88;7391729;19;20672;-59
2023/11/23 02:22:59;;;;;;;14.73;11.80;;;;;;;7.17;89.27;101189.22;7391299;19;20353;-60
2023/11/23 02:25:27;;;;;;;15.52;12.27;;;;;;;7.23;89.44;101172.81;7393816;19;20360;-59
2023/11/23 02:27:54;;;;;;;13.50;11.43;;;;;;;7.23;90.10;101180.75;7391896;19;20376;-59
2023/11/23 02:30:21;;;;;;;15.07;12.33;;;;;;;7.28;90.24;101186.41;7393822;19;20498;-58
2023/11/23 02:32:48;;;;;;;15.52;11.90;;;;;;;7.28;90.38;101190.88;7392252;19;20372;-60
2023/11/23 02:35:15;;;;;;;13.63;12.00;;;;;;;7.31;90.67;101185.28;7390804;19;20444;-59
2023/11/23 02:37:42;;;;;;;12.98;11.27;;;;;;;7.32;90.69;101193.06;7389401;19;20387;-61
2023/11/23 02:40:10;;;;;;;14.43;11.77;;;;;;;7.30;90.84;101189.75;7391383;19;20456;-59
2023/11/23 02:42:41;;;;;;;15.93;12.10;;;;;;;7.36;90.85;101185.72;7392076;19;20364;-60
2023/11/23 02:45:11;;;;;;;14.60;12.35;;;;;;;7.35;90.85;101203.38;7391703;19;20887;-60
2023/11/23 02:47:38;;;;;;;15.73;12.57;;;;;;;7.39;90.72;101193.34;7389815;19;20377;-59
2023/11/23 02:50:05;;;;;;;15.13;12.52;;;;;;;7.42;90.69;101186.97;7390497;19;20848;-59
2023/11/23 02:52:32;;;;;;;14.50;12.55;;;;;;;7.42;90.86;101189.59;7391891;19;20700;-57
2023/11/23 02:54:59;;;;;;;14.88;12.80;;;;;;;7.45;90.88;101184.03;7391194;19;20372;-57
2023/11/23 02:57:26;;;;;;;15.87;13.10;;;;;;;7.45;90.98;101178.75;7392412;19;20674;-60
2023/11/23 02:59:53;;;;;;;15.07;12.77;;;;;;;7.43;91.27;101184.16;7389712;19;20385;-64
2023/11/23 03:02:20;;;;;;;15.02;12.93;;;;;;;7.44;91.37;101169.16;7391089;19;20719;-61
2023/11/23 03:04:47;;;;;;;16.55;13.75;;;;;;;7.44;92.00;101175.28;7390356;19;20856;-58
2023/11/23 03:07:14;;;;;;;14.48;12.48;;;;;;;7.44;92.13;101158.59;7390983;19;20889;-60
2023/11/23 03:09:41;;;;;;;17.92;13.35;;;;;;;7.43;92.83;101167.50;7391722;19;20394;-57
2023/11/23 03:12:07;;;;;;;16.40;13.38;;;;;;;7.45;92.90;101150.53;7390589;19;20435;-59
2023/11/23 03:14:34;;;;;;;15.95;14.20;;;;;;;7.44;93.51;101150.66;7390489;19;20376;-59
2023/11/23 03:17:03;;;;;;;17.17;14.77;;;;;;;7.43;93.65;101146.38;7390732;19;20364;-59
2023/11/23 03:19:31;;;;;;;15.95;14.23;;;;;;;7.42;93.79;101140.28;7387228;19;20357;-57
2023/11/23 03:21:58;;;;;;;16.67;14.07;;;;;;;7.39;94.34;101134.44;7386310;19;20364;-57
2023/11/23 03:24:24;;;;;;;16.15;13.68;;;;;;;7.38;94.39;101136.25;7386032;19;20451;-60
2023/11/23 03:26:51;;;;;;;16.25;14.40;;;;;;;7.43;94.27;101130.53;7390446;19;20365;-59
2023/11/23 03:29:19;;;;;;;15.13;13.47;;;;;;;7.42;94.75;101128.91;7390647;19;20360;-59
2023/11/23 03:31:47;;;;;;;15.48;13.70;;;;;;;7.45;94.99;101123.31;7391055;19;20371;-58
2023/11/23 03:34:14;;;;;;;16.65;14.15;;;;;;;7.44;95.58;101116.34;7389863;19;20448;-59
2023/11/23 03:36:41;;;;;;;16.73;13.95;;;;;;;7.42;96.29;101116.53;7390252;19;20413;-58
2023/11/23 03:39:08;;;;;;;16.00;14.30;;;;;;;7.38;97.16;101109.88;7396584;19;20372;-60
2023/11/23 03:41:34;;;;;;;16.77;14.80;;;;;;;7.37;98.32;101131.13;7394795;19;20638;-60
2023/11/23 03:44:01;;;;;;;18.63;16.10;;;;;;;7.37;98.64;101100.28;7394812;19;20365;-60
2023/11/23 03:46:28;;;;;;;18.38;16.17;;;;;;;7.33;98.81;101101.53;7394997;19;20432;-59
2023/11/23 03:48:56;;;;;;;18.13;15.70;;;;;;;7.35;99.09;101110.13;7395283;19;20705;-63
2023/11/23 03:51:24;;;;;;;17.55;15.75;;;;;;;7.30;99.32;101110.56;7397135;19;20384;-60
2023/11/23 03:53:51;;;;;;;18.35;16.42;;;;;;;7.30;99.49;101113.22;7397994;19;20470;-57
2023/11/23 03:56:18;;;;;;;18.52;16.52;;;;;;;7.31;99.82;101124.59;7396835;19;20373;-60
2023/11/23 03:58:45;;;;;;;19.02;16.77;;;;;;;7.35;100.00;101097.78;7396786;19;20381;-62
2023/11/23 04:01:12;;;;;;;19.03;17.03;;;;;;;7.37;100.00;101094.16;7396923;19;20773;-59
2023/11/23 04:03:44;;;;;;;18.60;16.60;;;;;;;7.30;100.00;101089.47;7394058;19;20372;-57
2023/11/23 04:06:11;;;;;;;19.85;17.55;;;;;;;7.36;100.00;101088.06;7396079;19;20667;-60
2023/11/23 04:08:39;;;;;;;19.25;17.17;;;;;;;7.34;100.00;101080.28;7393588;19;20730;-59
2023/11/23 04:11:08;;;;;;;18.45;16.55;;;;;;;7.35;100.00;101083.75;7397772;19;20349;-60
2023/11/23 04:13:35;;;;;;;20.15;17.85;;;;;;;7.38;100.00;101074.72;7397775;19;20379;-60
2023/11/23 04:16:02;;;;;;;18.70;16.55;;;;;;;7.37;100.00;101081.78;7396917;19;20381;-60
2023/11/23 04:18:29;;;;;;;18.50;16.60;;;;;;;7.44;100.00;101076.75;7396263;19;20364;-61
2023/11/23 04:20:56;;;;;;;20.02;17.85;;;;;;;7.48;100.00;101075.50;7395504;19;20364;-60
2023/11/23 04:23:23;;;;;;;18.70;16.70;;;;;;;7.48;100.00;101080.78;7391622;19;20371;-60
2023/11/23 04:25:50;;;;;;;19.90;17.77;;;;;;;7.49;100.00;101079.81;7397086;19;20360;-61
2023/11/23 04:28:17;;;;;;;19.13;17.13;;;;;;;7.49;100.00;101074.53;7397111;19;20377;-59
2023/11/23 04:30:47;;;;;;;19.42;17.15;;;;;;;7.52;100.00;101093.56;7390205;19;20366;-60
2023/11/23 04:33:14;;;;;;;19.95;17.58;;;;;;;7.55;100.00;101097.72;7394379;19;20374;-59
2023/11/23 04:35:41;;;;;;;20.65;18.50;;;;;;;7.57;100.00;101100.22;7397116;19;20450;-60
2023/11/23 04:38:08;;;;;;;18.00;16.17;;;;;;;7.57;100.00;101090.50;7391956;19;20379;-61
2023/11/23 04:40:34;;;;;;;18.70;16.70;;;;;;;7.60;100.00;101090.19;7396408;19;20443;-61
2023/11/23 04:43:01;;;;;;;18.40;16.30;;;;;;;7.67;100.00;101077.22;7393570;19;20494;-60
2023/11/23 04:45:28;;;;;;;19.92;17.25;;;;;;;7.66;100.00;101072.94;7395809;19;20447;-60
2023/11/23 04:47:55;;;;;;;17.50;15.60;;;;;;;7.68;100.00;101077.09;7392792;19;20730;-60
2023/11/23 04:50:22;;;;;;;18.73;16.73;;;;;;;7.70;100.00;101082.22;7395377;19;20374;-60
2023/11/23 04:52:48;;;;;;;18.73;16.83;;;;;;;7.74;100.00;101076.50;7395834;19;20348;-59
2023/11/23 04:55:15;;;;;;;18.88;16.98;;;;;;;7.77;100.00;101080.66;7395695;19;20904;-62
2023/11/23 04:57:42;;;;;;;19.38;17.15;;;;;;;7.74;100.00;101073.88;7391400;19;20368;-62
2023/11/23 05:00:10;;;;;;;18.90;16.88;;;;;;;7.81;100.00;101068.00;7394133;19;20865;-61
2023/11/23 05:02:42;;;;;;;16.63;14.93;;;;;;;7.77;100.00;101070.09;7393728;19;20353;-60
2023/11/23 05:05:13;;;;;;;19.17;16.77;;;;;;;7.82;100.00;101062.56;7395077;19;20359;-63
2023/11/23 05:07:40;;;;;;;19.05;17.08;;;;;;;7.84;100.00;101075.59;7395519;19;20373;-62
2023/11/23 05:10:08;;;;;;;18.42;16.52;;;;;;;7.86;100.00;101076.28;7393961;19;20368;-62
2023/11/23 05:12:35;;;;;;;17.25;15.55;;;;;;;7.86;100.00;101065.72;7395800;19;20348;-63
2023/11/23 05:15:03;;;;;;;16.67;14.98;;;;;;;7.91;100.00;101052.94;7391902;19;20906;-62
2023/11/23 05:17:31;;;;;;;16.63;14.93;;;;;;;7.90;100.00;101048.59;7391464;19;20418;-63
2023/11/23 05:19:58;;;;;;;16.58;14.88;;;;;;;7.95;100.00;101062.22;7393968;19;20861;-62
2023/11/23 05:22:25;;;;;;;17.20;15.52;;;;;;;7.98;100.00;101046.06;7394111;19;20389;-61
2023/11/23 05:24:52;;;;;;;16.30;14.70;;;;;;;8.00;100.00;101048.56;7393604;19;21007;-63
2023/11/23 05:27:20;;;;;;;16.83;15.13;;;;;;;7.99;100.00;101039.81;7392958;19;20453;-63
2023/11/23 05:29:46;;;;;;;15.43;13.93;;;;;;;8.04;100.00;101034.91;7394506;19;20385;-63
2023/11/23 05:32:17;;;;;;;16.90;15.10;;;;;;;8.07;100.00;101044.31;7393534;19;20360;-62
2023/11/23 05:34:44;;;;;;;15.98;14.43;;;;;;;8.10;100.00;101044.88;7393931;19;20359;-63
2023/11/23 05:37:11;;;;;;;16.60;14.90;;;;;;;8.10;100.00;101044.88;7394255;19;20410;-62
2023/11/23 05:39:39;;;;;;;15.95;14.25;;;;;;;8.08;100.00;101025.69;7391437;19;20396;-63
2023/11/23 05:42:10;;;;;;;16.75;15.05;;;;;;;8.15;100.00;101016.16;7394692;19;20688;-61
2023/11/23 05:44:37;;;;;;;17.50;15.70;;;;;;;8.20;100.00;101020.16;7393593;19;20364;-62
2023/11/23 05:47:04;;;;;;;17.88;16.08;;;;;;;8.21;100.00;101021.84;7392030;19;20396;-62
2023/11/23 05:49:31;;;;;;;16.08;14.48;;;;;;;8.23;100.00;101018.06;7392695;19;20514;-62
2023/11/23 05:51:58;;;;;;;16.92;15.23;;;;;;;8.23;100.00;101006.66;7393854;19;20348;-62
2023/11/23 05:54:25;;;;;;;16.73;15.07;;;;;;;8.26;100.00;101019.56;7392396;19;20488;-60
2023/11/23 05:56:52;;;;;;;17.85;16.05;;;;;;;8.27;100.00;101015.97;7393078;19;20353;-63
2023/11/23 05:59:19;;;;;;;16.13;14.50;;;;;;;8.28;100.00;101014.97;7393962;19;20411;-63
2023/11/23 06:01:46;;;;;;;16.40;14.80;;;;;;;8.34;100.00;101015.19;7389494;19;20428;-62
2023/11/23 06:04:12;;;;;;;16.55;14.90;;;;;;;8.38;100.00;100999.84;7393090;19;20344;-62
2023/11/23 06:06:40;;;;;;;17.05;15.43;;;;;;;8.43;100.00;100999.41;7393337;19;20666;-62
2023/11/23 06:09:09;;;;;;;16.77;15.13;;;;;;;8.44;100.00;101001.09;7393816;19;20862;-62
2023/11/23 06:11:36;;;;;;;16.60;14.90;;;;;;;8.46;100.00;101010.53;7389712;19;20389;-62
2023/11/23 06:14:03;;;;;;;16.33;14.63;;;;;;;8.49;100.00;100999.63;7392752;19;20377;-64
2023/11/23 06:16:30;;;;;;;15.75;14.15;;;;;;;8.53;100.00;100993.06;7392390;19;20348;-63
2023/11/23 06:18:56;;;;;;;16.50;14.90;;;;;;;8.58;100.00;100997.88;7393535;19;20711;-62
2023/11/23 06:21:27;;;;;;;16.27;14.70;;;;;;;8.62;100.00;100996.59;7391441;19;20393;-63
2023/11/23 06:23:54;;;;;;;16.25;14.65;;;;;;;8.66;100.00;100986.53;7391849;19;20349;-63
2023/11/23 06:26:21;;;;;;;15.20;13.70;;;;;;;8.68;100.00;100992.50;7389755;19;20345;-63
2023/11/23 06:28:48;;;;;;;16.10;14.40;;;;;;;8.72;100.00;100986.75;7393440;19;20364;-60
2023/11/23 06:31:17;;;;;;;15.52;13.98;;;;;;;8.74;100.00;100984.75;7391899;19;20901;-63
2023/11/23 06:33:44;;;;;;;16.38;14.68;;;;;;;8.77;100.00;100988.91;7393408;19;20452;-62
2023/11/23 06:36:11;;;;;;;17.23;15.52;;;;;;;8.85;100.00;100980.22;7394052;19;20381;-63
2023/11/23 06:38:37;;;;;;;16.90;15.10;;;;;;;8.88;100.00;100974.59;7389518;19;20364;-63
2023/11/23 06:41:05;;;;;;;17.92;15.93;;;;;;;8.92;100.00;100979.41;7387180;19;20398;-64
2023/11/23 06:43:32;;;;;;;16.73;15.02;;;;;;;8.90;100.00;100970.78;7386844;19;20843;-63
2023/11/23 06:45:59;;;;;;;17.27;15.47;;;;;;;8.92;100.00;100968.00;7387204;19;20369;-63
2023/11/23 06:48:25;;;;;;;17.77;15.95;;;;;;;8.95;100.00;100960.59;7392598;19;20372;-63
2023/11/23 06:50:52;;;;;;;17.45;15.65;;;;;;;8.96;100.00;100972.00;7390792;19;20908;-64
2023/11/23 06:53:21;;;;;;;17.27;15.47;;;;;;;8.96;100.00;100964.06;7392074;19;20823;-65
2023/11/23 06:55:48;;;;;;;18.40;16.50;;;;;;;9.00;100.00;100975.16;7392186;19;20394;-63
2023/11/23 06:58:15;;;;;;;19.30;17.30;;;;;;;9.03;100.00;100957.16;7392084;19;20360;-63
2023/11/23 07:00:42;;;;;;;19.77;17.67;;;;;;;8.97;100.00;100973.66;7393734;19;20376;-63
2023/11/23 07:03:10;;;;;;;21.08;18.88;;;;;;;9.00;100.00;100980.44;7388866;19;20359;-63
2023/11/23 07:05:37;;;;;;;21.98;19.67;;;;;;;8.95;100.00;100973.81;7391182;19;20454;-60
2023/11/23 07:08:04;;;;;;;22.65;20.20;;;;;;;8.92;100.00;100979.41;7391200;19;20365;-62
2023/11/23 07:10:33;;;;;;;22.25;19.42;;;;;;;8.89;100.00;100971.78;7392367;19;20707;-63
2023/11/23 07:13:01;;;;;;;24.35;21.20;;;;;;;8.91;100.00;100963.72;7394625;19;20873;-63
2023/11/23 07:15:29;;;;;;;22.33;19.93;;;;;;;8.88;100.00;100959.56;7398470;19;20356;-62
2023/11/23 07:17:58;;;;;;;23.42;19.90;;;;;;;8.86;100.00;100966.84;7397596;19;20352;-64
2023/11/23 07:20:26;;;;;;;23.27;19.95;;;;;;;8.86;100.00;100966.84;7393935;19;20718;-63
2023/11/23 07:22:53;;;;;;;23.17;20.35;;;;;;;8.90;100.00;100952.28;7396234;19;20360;-63
2023/11/23 07:25:20;;;;;;;22.27;19.40;;;;;;;8.87;100.00;100942.03;7395377;19;20411;-63
2023/11/23 07:27:47;;;;;;;21.77;19.45;;;;;;;8.92;100.00;100954.78;7397212;19;20480;-63
2023/11/23 07:30:14;;;;;;;21.73;18.40;;;;;;;8.93;100.00;100944.03;7396606;19;20364;-63
2023/11/23 07:32:41;;;;;;;20.60;18.38;;;;;;;8.93;100.00;100944.03;7400410;19;20364;-64
2023/11/23 07:35:08;;;;;;;18.25;15.98;;;;;;;8.93;100.00;100945.88;7397024;19;20352;-64
2023/11/23 07:37:35;;;;;;;19.10;16.85;;;;;;;9.00;100.00;100936.28;7397608;19;20376;-64
2023/11/23 07:40:12;;;;;;;19.40;16.40;;;;;;;9.04;100.00;100936.81;7398002;19;20352;-64
2023/11/23 07:42:42;;;;;;;19.77;15.80;;;;;;;9.08;100.00;100911.69;7396250;19;20440;-64
2023/11/23 07:45:10;;;;;;;16.77;15.07;;;;;;;9.07;100.00;100910.03;7398141;19;20385;-64
2023/11/23 07:47:41;;;;;;;17.45;15.23;;;;;;;9.10;100.00;100915.81;7399399;19;20368;-64
2023/11/23 07:50:12;;;;;;;16.48;14.77;;;;;;;9.16;100.00;100899.31;7393267;19;20400;-64
2023/11/23 07:52:38;;;;;;;16.27;13.88;;;;;;;9.21;100.00;100901.47;7396612;19;20406;-64
2023/11/23 07:55:06;;;;;;;15.60;14.00;;;;;;;9.25;100.00;100897.50;7395322;19;20363;-64
2023/11/23 07:57:32;;;;;;;15.95;14.25;;;;;;;9.28;100.00;100893.72;7397534;19;20365;-64
2023/11/23 07:59:59;;;;;;;14.55;12.82;;;;;;;9.34;100.00;100890.41;7393220;19;20340;-64
2023/11/23 08:02:26;;;;;;;16.77;13.60;;;;;;;9.35;100.00;100937.94;7391335;19;20373;-64
2023/11/23 08:04:53;;;;;;;14.77;13.15;;;;;;;9.43;100.00;100878.03;7387896;19;20384;-64
2023/11/23 08:07:20;;;;;;;14.02;12.52;;;;;;;9.46;100.00;100888.31;7395761;19;20436;-64
2023/11/23 08:09:47;;;;;;;14.38;12.65;;;;;;;9.51;100.00;100870.09;7398227;19;20372;-64
2023/11/23 08:12:14;;;;;;;13.80;11.90;;;;;;;9.57;100.00;100874.75;7396973;19;20389;-64
2023/11/23 08:14:41;;;;;;;14.35;12.02;;;;;;;9.57;100.00;100901.22;7391570;19;20341;-64
2023/11/23 08:17:08;;;;;;;13.25;11.23;;;;;;;9.59;100.00;100884.19;7395463;19;20356;-64
2023/11/23 08:19:35;;;;;;;12.82;11.45;;;;;;;9.65;100.00;100895.94;7396795;19;20369;-64
2023/11/23 08:22:02;;;;;;;15.35;12.15;;;;;;;9.73;100.00;100869.47;7396146;19;20344;-64
2023/11/23 08:24:29;;;;;;;12.98;11.45;;;;;;;9.72;100.00;100870.44;7393877;19;20376;-64
2023/11/23 08:26:56;;;;;;;13.15;11.60;;;;;;;9.80;100.00;100867.81;7391773;19;20365;-64
2023/11/23 08:29:23;;;;;;;14.25;11.77;;;;;;;9.83;100.00;100873.75;7393143;19;20349;-64
2023/11/23 08:31:51;;;;;;;12.77;11.48;;;;;;;9.89;100.00;100862.50;7391881;19;20779;-64
2023/11/23 08:34:18;;;;;;;12.68;11.40;;;;;;;9.95;100.00;100851.25;7394410;19;20441;-64
2023/11/23 08:36:44;;;;;;;13.50;11.47;;;;;;;9.98;100.00;100856.19;7394489;19;20367;-64
2023/11/23 08:39:12;;;;;;;13.30;11.25;;;;;;;10.02;100.00;100854.88;7396210;19;20431;-64
2023/11/23 08:41:39;;;;;;;14.07;11.55;;;;;;;10.06;100.00;100858.84;7393378;19;20924;-64
2023/11/23 08:44:06;;;;;;;12.83;10.53;;;;;;;10.05;100.00;100865.16;7393761;19;20962;-63
2023/11/23 08:46:33;;;;;;;12.95;9.93;;;;;;;10.06;100.00;100853.53;7396830;19;20372;-64
2023/11/23 08:49:01;;;;;;;13.02;10.80;;;;;;;10.11;100.00;100869.75;7396870;19;20436;-64
2023/11/23 08:51:29;;;;;;;13.27;10.45;;;;;;;10.13;100.00;100843.09;7393428;19;20379;-64
2023/11/23 08:53:56;;;;;;;12.90;10.32;;;;;;;10.11;100.00;100845.91;7391830;19;20344;-64
2023/11/23 08:56:23;;;;;;;14.88;10.45;;;;;;;10.15;100.00;100830.50;7395176;19;20341;-64
2023/11/23 08:58:50;;;;;;;14.30;11.75;;;;;;;10.11;100.00;100811.44;7394521;19;20373;-64
2023/11/23 09:01:17;;;;;;;16.30;11.57;;;;;;;10.17;100.00;100813.41;7393975;19;20368;-64
2023/11/23 09:03:44;;;;;;;13.73;10.98;;;;;;;10.13;100.00;100800.69;7390059;19;20896;-64
2023/11/23 09:06:13;;;;;;;14.48;11.57;;;;;;;10.12;100.00;100799.84;7395025;19;20695;-64
2023/11/23 09:08:40;;;;;;;16.48;11.63;;;;;;;10.15;100.00;100796.03;7395640;19;20368;-64
2023/11/23 09:11:12;;;;;;;16.30;12.25;;;;;;;10.14;100.00;100803.16;7395458;19;20419;-64
2023/11/23 09:13:39;;;;;;;14.00;11.27;;;;;;;10.16;100.00;100810.97;7396023;19;20887;-64
2023/11/23 09:16:07;;;;;;;13.40;10.88;;;;;;;10.25;100.00;100793.19;7396001;19;20335;-64
2023/11/23 09:18:34;;;;;;;13.20;11.18;;;;;;;10.23;100.00;100808.44;7394444;19;20361;-64
2023/11/23 09:21:01;;;;;;;14.10;10.65;;;;;;;10.24;100.00;100821.53;7393840;19;20428;-63
2023/11/23 09:23:27;;;;;;;15.45;11.38;;;;;;;10.37;100.00;100797.16;7393342;19;20462;-63
2023/11/23 09:25:54;;;;;;;12.52;10.40;;;;;;;10.38;100.00;100804.94;7394910;19;20347;-63
2023/11/23 09:28:22;;;;;;;15.10;10.85;;;;;;;10.43;100.00;100800.94;7394643;19;20880;-64
2023/11/23 09:30:49;;;;;;;13.63;10.57;;;;;;;10.43;100.00;100787.69;7394978;19;20364;-63
2023/11/23 09:33:17;;;;;;;13.27;10.63;;;;;;;10.50;100.00;100783.38;7394940;19;20358;-63
2023/11/23 09:35:46;;;;;;;11.83;9.87;;;;;;;10.55;100.00;100776.53;7393633;19;20417;-63
2023/11/23 09:38:13;;;;;;;11.93;9.45;;;;;;;10.53;100.00;100772.41;7394953;19;20375;-63
2023/11/23 09:40:40;;;;;;;14.40;9.30;;;;;;;10.57;100.00;100777.19;7395626;19;20387;-64
2023/11/23 09:43:07;;;;;;;11.82;8.95;;;;;;;10.59;100.00;100777.84;7395873;19;20340;-63
2023/11/23 09:45:35;;;;;;;13.50;9.23;;;;;;;10.63;100.00;100780.16;7393037;19;20397;-63
2023/11/23 09:48:04;;;;;;;10.90;8.50;;;;;;;10.64;99.95;100792.41;7394422;19;20360;-63
2023/11/23 09:50:31;;;;;;;13.25;9.77;;;;;;;10.70;99.81;100781.13;7393363;19;20930;-64
2023/11/23 09:53:06;;;;;;;12.68;8.60;;;;;;;10.69;99.99;100776.78;7395851;19;20373;-63
2023/11/23 09:55:33;;;;;;;13.82;9.75;;;;;;;10.73;99.70;100773.66;7394292;19;20364;-63
2023/11/23 09:57:59;;;;;;;12.80;9.38;;;;;;;10.75;99.86;100774.28;7395381;19;20344;-63
2023/11/23 10:00:26;;;;;;;12.73;10.13;;;;;;;10.79;99.64;100743.72;7394322;19;20341;-63
2023/11/23 10:02:57;;;;;;;11.80;8.27;;;;;;;10.72;99.88;100768.50;7393291;19;20411;-63
2023/11/23 10:05:24;;;;;;;10.80;9.02;;;;;;;10.82;99.81;100740.75;7391768;19;20392;-63
2023/11/23 10:07:53;;;;;;;11.37;9.43;;;;;;;10.75;100.00;100741.59;7395629;19;20360;-63
2023/11/23 10:10:21;;;;;;;10.82;9.73;;;;;;;10.82;99.69;100727.47;7393702;19;20347;-63
2023/11/23 10:12:49;;;;;;;13.75;10.07;;;;;;;10.85;99.63;100723.63;7393458;19;20380;-62
2023/11/23 10:15:16;;;;;;;10.88;9.35;;;;;;;10.84;99.84;100735.28;7394465;19;20367;-62
2023/11/23 10:17:43;;;;;;;13.68;9.65;;;;;;;10.87;99.78;100729.59;7394260;19;20367;-63
2023/11/23 10:20:15;;;;;;;12.35;9.30;;;;;;;10.88;99.82;100739.22;7390532;19;20947;-62
2023/11/23 10:22:46;;;;;;;10.32;9.00;;;;;;;10.94;99.68;100713.78;7392134;19;20385;-63
2023/11/23 10:25:37;;;;;;;11.63;8.88;;;;;;;10.95;99.41;100710.97;7393047;19;20451;-62
2023/11/23 10:28:04;;;;;;;11.60;9.05;;;;;;;10.98;99.24;100715.91;7392978;19;20375;-63
2023/11/23 10:30:31;;;;;;;11.93;9.02;;;;;;;10.97;99.15;100719.59;7393820;19;20403;-63
2023/11/23 10:33:00;;;;;;;12.55;8.88;;;;;;;11.00;99.14;100703.28;7393150;19;20336;-63
2023/11/23 10:35:39;;;;;;;15.23;9.10;;;;;;;11.06;98.80;100716.88;7391267;19;20376;-63
2023/11/23 10:38:07;;;;;;;10.03;8.33;;;;;;;11.09;98.63;100705.88;7392568;19;20875;-63
2023/11/23 10:40:35;;;;;;;12.30;8.93;;;;;;;11.12;98.46;100693.09;7392770;19;20371;-63
2023/11/23 10:43:02;;;;;;;11.05;8.00;;;;;;;11.14;98.39;100687.59;7392391;19;20352;-63
2023/11/23 10:45:35;;;;;;;11.32;8.23;;;;;;;11.17;98.13;100687.25;7390864;19;20356;-63
2023/11/23 10:48:03;;;;;;;10.65;7.90;;;;;;;11.16;98.00;100704.19;7398526;19;20364;-63
2023/11/23 10:50:31;;;;;;;9.23;7.32;;;;;;;11.19;97.73;100687.88;7398066;19;20347;-63
2023/11/23 10:53:01;;;;;;;9.45;7.45;;;;;;;11.19;97.90;100667.47;7400232;19;20392;-63
2023/11/23 10:55:28;;;;;;;9.70;7.60;;;;;;;11.23;97.79;100665.28;7397854;19;20336;-62
2023/11/23 10:58:00;;;;;;;10.40;7.50;;;;;;;11.26;97.29;100654.28;7399261;19;20370;-63
2023/11/23 11:00:28;;;;;;;8.67;6.73;;;;;;;11.28;97.19;100657.59;7396723;19;20361;-63
2023/11/23 11:02:59;;;;;;;9.07;6.07;;;;;;;11.32;96.79;100648.25;7399359;19;20352;-62
2023/11/23 11:05:35;;;;;;;10.80;6.82;;;;;;;11.35;96.42;100647.91;7397900;19;20709;-63
2023/11/23 11:08:07;;;;;;;7.80;5.53;;;;;;;11.35;96.30;100642.59;7401000;19;20462;-63
2023/11/23 11:10:40;;;;;;;10.10;5.95;;;;;;;11.41;95.85;100651.66;7399930;19;20923;-61
2023/11/23 11:13:11;;;;;;;8.38;5.68;;;;;;;11.42;95.70;100638.19;7401310;19;20359;-63
2023/11/23 11:16:09;;;;;;;9.63;5.65;;;;;;;11.45;95.22;100638.84;7397776;19;20381;-63